Time,TemperatureF,DewpointF,PressureIn,WindDirection,WindDirectionDegrees,WindSpeedMPH,WindSpeedGustMPH,Humidity,HourlyPrecipIn,Conditions,Clouds,dailyrainin,SoftwareType,DateUTC
2013-04-09 00:07:00,71.3,67.0,30.54,SSE,153,3.0,-999.0,85,-99.99,,,0.00,weatherlink.com 1.10,2013-04-09 05:07:00,
2013-04-09 00:18:00,71.4,67.0,30.53,SSE,159,4.0,-999.0,86,-99.99,,,0.00,weatherlink.com 1.10,2013-04-09 05:18:00,
2013-04-09 00:34:00,71.3,67.0,30.53,SE,144,5.0,-999.0,86,-99.99,,,0.00,weatherlink.com 1.10,2013-04-09 05:34:00,
2013-04-09 01:18:00,71.1,67.0,30.53,SSE,150,10.0,-999.0,87,-99.99,,,0.00,weatherlink.com 1.10,2013-04-09 06:18:00,
2013-04-09 01:33:00,71.0,67.0,30.53,SSE,155,10.0,-999.0,87,-99.99,,,0.00,weatherlink.com 1.10,2013-04-09 06:33:00,
2013-04-09 01:48:00,70.9,67.0,30.52,SE,129,3.0,-999.0,87,-99.99,,,0.00,weatherlink.com 1.10,2013-04-09 06:48:00,
2013-04-09 02:03:00,70.8,67.0,30.53,SE,130,4.0,-999.0,86,-99.99,,,0.00,weatherlink.com 1.10,2013-04-09 07:03:00,
2013-04-09 02:18:00,70.3,66.0,30.52,SE,131,7.0,-999.0,87,-99.99,,,0.00,weatherlink.com 1.10,2013-04-09 07:18:00,
2013-04-09 02:33:00,69.9,66.0,30.52,SE,124,5.0,-999.0,87,-99.99,,,0.00,weatherlink.com 1.10,2013-04-09 07:33:00,
2013-04-09 02:48:00,69.8,66.0,30.51,SSE,165,3.0,-999.0,88,-99.99,,,0.00,weatherlink.com 1.10,2013-04-09 07:48:00,
2013-04-09 03:03:00,69.7,66.0,30.51,SE,134,3.0,-999.0,87,-99.99,,,0.00,weatherlink.com 1.10,2013-04-09 08:03:00,
2013-04-09 03:18:00,69.7,66.0,30.50,SSE,159,5.0,-999.0,87,-99.99,,,0.00,weatherlink.com 1.10,2013-04-09 08:18:00,
2013-04-09 03:33:00,69.4,65.0,30.50,SE,136,4.0,-999.0,87,-99.99,,,0.00,weatherlink.com 1.10,2013-04-09 08:33:00,
2013-04-09 03:48:00,69.2,65.0,30.50,SE,134,5.0,-999.0,87,-99.99,,,0.00,weatherlink.com 1.10,2013-04-09 08:48:00,
2013-04-09 04:03:00,69.2,66.0,30.51,South,173,7.0,-999.0,88,-99.99,,,0.00,weatherlink.com 1.10,2013-04-09 09:03:00,
2013-04-09 04:33:00,68.8,65.0,30.51,South,176,1.0,-999.0,88,-99.99,,,0.00,weatherlink.com 1.10,2013-04-09 09:33:00,
2013-04-09 05:03:00,68.5,65.0,30.51,SSE,159,4.0,-999.0,88,-99.99,,,0.00,weatherlink.com 1.10,2013-04-09 10:03:00,
2013-04-09 05:18:00,68.3,65.0,30.51,ESE,116,0.0,-999.0,88,-99.99,,,0.00,weatherlink.com 1.10,2013-04-09 10:18:00,
2013-04-09 05:33:00,68.0,65.0,30.50,SE,125,3.0,-999.0,89,-99.99,,,0.00,weatherlink.com 1.10,2013-04-09 10:33:00,
2013-04-09 05:48:00,68.0,64.0,30.50,SE,130,0.0,-999.0,88,-99.99,,,0.00,weatherlink.com 1.10,2013-04-09 10:48:00,
2013-04-09 07:04:00,67.4,64.0,30.50,ESE,109,4.0,-999.0,89,-99.99,,,0.00,weatherlink.com 1.10,2013-04-09 12:04:00,
2013-04-09 07:18:00,67.4,64.0,30.50,East,87,0.0,-999.0,89,-99.99,,,0.00,weatherlink.com 1.10,2013-04-09 12:18:00,
2013-04-09 07:48:00,68.0,64.0,30.50,East,84,0.0,-999.0,88,-99.99,,,0.00,weatherlink.com 1.10,2013-04-09 12:48:00,
2013-04-09 08:19:00,69.1,65.0,30.51,SE,126,6.0,-999.0,87,-99.99,,,0.00,weatherlink.com 1.10,2013-04-09 13:19:00,
2013-04-09 08:33:00,69.4,65.0,30.51,East,87,0.0,-999.0,87,-99.99,,,0.00,weatherlink.com 1.10,2013-04-09 13:33:00,
2013-04-09 08:49:00,69.9,66.0,30.52,SE,129,6.0,-999.0,86,-99.99,,,0.00,weatherlink.com 1.10,2013-04-09 13:49:00,
2013-04-09 09:19:00,71.8,67.0,30.52,East,97,0.0,-999.0,84,-99.99,,,0.00,weatherlink.com 1.10,2013-04-09 14:19:00,
2013-04-09 09:34:00,72.5,67.0,30.53,SSE,157,4.0,-999.0,82,-99.99,,,0.00,weatherlink.com 1.10,2013-04-09 14:34:00,
2013-04-09 09:48:00,73.3,67.0,30.53,SE,134,3.0,-999.0,81,-99.99,,,0.00,weatherlink.com 1.10,2013-04-09 14:48:00,
2013-04-09 10:03:00,73.9,67.0,30.52,South,186,12.0,-999.0,78,-99.99,,,0.00,weatherlink.com 1.10,2013-04-09 15:03:00,
2013-04-09 10:18:00,74.6,67.0,30.53,SE,137,6.0,-999.0,77,-99.99,,,0.00,weatherlink.com 1.10,2013-04-09 15:18:00,
2013-04-09 10:49:00,75.7,67.0,30.53,SE,134,5.0,-999.0,75,-99.99,,,0.00,weatherlink.com 1.10,2013-04-09 15:49:00,
2013-04-09 11:04:00,76.6,67.0,30.53,SE,134,0.0,-999.0,73,-99.99,,,0.00,weatherlink.com 1.10,2013-04-09 16:04:00,
2013-04-09 11:19:00,77.8,68.0,30.53,SE,144,6.0,-999.0,72,-99.99,,,0.00,weatherlink.com 1.10,2013-04-09 16:19:00,
2013-04-09 11:34:00,78.3,68.0,30.53,SE,128,4.0,-999.0,71,-99.99,,,0.00,weatherlink.com 1.10,2013-04-09 16:34:00,
2013-04-09 11:49:00,78.1,68.0,30.53,SE,134,6.0,-999.0,70,-99.99,,,0.00,weatherlink.com 1.10,2013-04-09 16:49:00,
2013-04-09 12:04:00,78.6,68.0,30.53,SSE,159,10.0,-999.0,70,-99.99,,,0.00,weatherlink.com 1.10,2013-04-09 17:04:00,
2013-04-09 12:19:00,78.7,68.0,30.53,SE,129,6.0,-999.0,70,-99.99,,,0.00,weatherlink.com 1.10,2013-04-09 17:19:00,
2013-04-09 12:34:00,80.4,69.0,30.52,SSE,160,16.0,-999.0,68,-99.99,,,0.00,weatherlink.com 1.10,2013-04-09 17:34:00,
2013-04-09 12:49:00,80.4,68.0,30.51,SE,128,5.0,-999.0,66,-99.99,,,0.00,weatherlink.com 1.10,2013-04-09 17:49:00,
2013-04-09 13:04:00,81.1,67.0,30.50,ESE,123,0.0,-999.0,63,-99.99,,,0.00,weatherlink.com 1.10,2013-04-09 18:04:00,
2013-04-09 13:34:00,82.9,68.0,30.48,ESE,121,0.0,-999.0,62,-99.99,,,0.00,weatherlink.com 1.10,2013-04-09 18:34:00,
2013-04-09 13:49:00,82.8,68.0,30.48,SSE,165,13.0,-999.0,61,-99.99,,,0.00,weatherlink.com 1.10,2013-04-09 18:49:00,
2013-04-09 14:04:00,82.5,70.0,30.47,SSW,194,14.0,-999.0,65,-99.99,,,0.00,weatherlink.com 1.10,2013-04-09 19:04:00,
2013-04-09 14:19:00,82.3,68.0,30.47,South,170,6.0,-999.0,62,-99.99,,,0.00,weatherlink.com 1.10,2013-04-09 19:19:00,
2013-04-09 14:34:00,81.6,69.0,30.46,SSE,159,7.0,-999.0,66,-99.99,,,0.00,weatherlink.com 1.10,2013-04-09 19:34:00,
2013-04-09 14:49:00,81.6,69.0,30.45,ESE,123,9.0,-999.0,65,-99.99,,,0.00,weatherlink.com 1.10,2013-04-09 19:49:00,
2013-04-09 15:04:00,81.7,69.0,30.44,ESE,123,9.0,-999.0,65,-99.99,,,0.00,weatherlink.com 1.10,2013-04-09 20:04:00,
2013-04-09 15:34:00,80.9,69.0,30.43,ESE,123,6.0,-999.0,67,-99.99,,,0.00,weatherlink.com 1.10,2013-04-09 20:34:00,
2013-04-09 15:49:00,81.1,70.0,30.43,SSE,167,12.0,-999.0,69,-99.99,,,0.00,weatherlink.com 1.10,2013-04-09 20:49:00,
2013-04-09 16:04:00,83.7,71.0,30.42,South,184,4.0,-999.0,66,-99.99,,,0.00,weatherlink.com 1.10,2013-04-09 21:04:00,
2013-04-09 16:19:00,81.0,70.0,30.42,SE,144,6.0,-999.0,69,-99.99,,,0.00,weatherlink.com 1.10,2013-04-09 21:19:00,
2013-04-09 16:34:00,82.5,70.0,30.41,SSE,159,5.0,-999.0,67,-99.99,,,0.00,weatherlink.com 1.10,2013-04-09 21:34:00,
2013-04-09 16:49:00,82.2,70.0,30.42,South,171,10.0,-999.0,66,-99.99,,,0.00,weatherlink.com 1.10,2013-04-09 21:49:00,
2013-04-09 17:04:00,81.2,71.0,30.42,SE,128,7.0,-999.0,70,-99.99,,,0.00,weatherlink.com 1.10,2013-04-09 22:04:00,
2013-04-09 17:19:00,81.2,70.0,30.43,SE,126,0.0,-999.0,69,-99.99,,,0.00,weatherlink.com 1.10,2013-04-09 22:19:00,
2013-04-09 17:34:00,82.0,70.0,30.42,SE,130,6.0,-999.0,68,-99.99,,,0.00,weatherlink.com 1.10,2013-04-09 22:34:00,
2013-04-09 17:49:00,81.5,70.0,30.42,SE,144,9.0,-999.0,69,-99.99,,,0.00,weatherlink.com 1.10,2013-04-09 22:49:00,
2013-04-09 18:04:00,81.0,71.0,30.42,South,169,11.0,-999.0,71,-99.99,,,0.00,weatherlink.com 1.10,2013-04-09 23:04:00,
2013-04-09 18:20:00,80.4,70.0,30.43,SE,135,10.0,-999.0,71,-99.99,,,0.00,weatherlink.com 1.10,2013-04-09 23:20:00,
2013-04-09 18:35:00,79.4,70.0,30.43,SSE,154,10.0,-999.0,72,-99.99,,,0.00,weatherlink.com 1.10,2013-04-09 23:35:00,
2013-04-09 18:50:00,78.9,70.0,30.43,SSE,167,10.0,-999.0,74,-99.99,,,0.00,weatherlink.com 1.10,2013-04-09 23:50:00,
2013-04-09 19:05:00,78.5,70.0,30.44,South,184,9.0,-999.0,74,-99.99,,,0.00,weatherlink.com 1.10,2013-04-10 00:05:00,
2013-04-09 19:19:00,78.0,70.0,30.45,SE,129,3.0,-999.0,76,-99.99,,,0.00,weatherlink.com 1.10,2013-04-10 00:19:00,
2013-04-09 19:34:00,77.6,70.0,30.45,SE,127,5.0,-999.0,77,-99.99,,,0.00,weatherlink.com 1.10,2013-04-10 00:34:00,
2013-04-09 19:49:00,77.0,70.0,30.45,SSE,155,5.0,-999.0,78,-99.99,,,0.00,weatherlink.com 1.10,2013-04-10 00:49:00,
2013-04-09 20:04:00,76.6,70.0,30.46,SE,138,5.0,-999.0,79,-99.99,,,0.00,weatherlink.com 1.10,2013-04-10 01:04:00,
2013-04-09 20:20:00,76.3,70.0,30.47,SSE,163,2.0,-999.0,80,-99.99,,,0.00,weatherlink.com 1.10,2013-04-10 01:20:00,
2013-04-09 20:35:00,76.0,69.0,30.48,SSE,150,3.0,-999.0,80,-99.99,,,0.00,weatherlink.com 1.10,2013-04-10 01:35:00,
2013-04-09 20:50:00,75.8,70.0,30.48,SSE,152,3.0,-999.0,81,-99.99,,,0.00,weatherlink.com 1.10,2013-04-10 01:50:00,
2013-04-09 21:05:00,75.7,70.0,30.50,ESE,121,5.0,-999.0,82,-99.99,,,0.00,weatherlink.com 1.10,2013-04-10 02:05:00,
2013-04-09 21:19:00,75.5,70.0,30.51,SSE,148,5.0,-999.0,82,-99.99,,,0.00,weatherlink.com 1.10,2013-04-10 02:19:00,
2013-04-09 21:34:00,75.3,70.0,30.51,SSE,148,3.0,-999.0,83,-99.99,,,0.00,weatherlink.com 1.10,2013-04-10 02:34:00,
2013-04-09 21:49:00,75.1,70.0,30.52,SE,130,0.0,-999.0,84,-99.99,,,0.00,weatherlink.com 1.10,2013-04-10 02:49:00,
2013-04-09 22:04:00,74.4,70.0,30.52,SSE,153,10.0,-999.0,86,-99.99,,,0.00,weatherlink.com 1.10,2013-04-10 03:04:00,
2013-04-09 22:19:00,73.6,70.0,30.52,SE,136,5.0,-999.0,88,-99.99,,,0.00,weatherlink.com 1.10,2013-04-10 03:19:00,
2013-04-09 22:34:00,73.1,70.0,30.52,South,169,9.0,-999.0,89,-99.99,,,0.00,weatherlink.com 1.10,2013-04-10 03:34:00,
2013-04-09 22:49:00,73.0,70.0,30.53,ESE,108,0.0,-999.0,90,-99.99,,,0.00,weatherlink.com 1.10,2013-04-10 03:49:00,
2013-04-09 23:04:00,73.0,70.0,30.53,SSE,148,2.0,-999.0,90,-99.99,,,0.00,weatherlink.com 1.10,2013-04-10 04:04:00,
2013-04-09 23:19:00,72.8,70.0,30.53,SE,132,1.0,-999.0,90,-99.99,,,0.00,weatherlink.com 1.10,2013-04-10 04:19:00,
2013-04-09 23:34:00,72.6,70.0,30.52,SE,137,3.0,-999.0,90,-99.99,,,0.00,weatherlink.com 1.10,2013-04-10 04:34:00,
2013-04-09 23:49:00,72.6,70.0,30.53,SE,131,6.0,-999.0,90,-99.99,,,0.00,weatherlink.com 1.10,2013-04-10 04:49:00,